Dordrecht, Netherlands
Current Conditions -  °F | °C
As of 1:10 AM on Monday 24 Nov 2014 (Local Time) from EHGR Reporting Station
Drizzle Drizzle  
Wind Chill: 50°   Ceiling: 4200
Heat Index: 50°   Visibility: 6mi
Dew Point: 48°   Wind: 7mph
Humidity: 94%   Direction: 320°NW
Pressure: 30.03"   Gusts: NA
Location:  51.77°N, 4.75°E
Report Text: EHGR 240010Z AUTO 32006KT 9999 DZ FEW005 SCT008 OVC042 10/09 Q1017 GRN
Loading
Personal Weather Stations






























Interactive Weather Map New forecast layout! Learn more

10-Day Weather Forecast

Advertisements
Track Severe Weather on mobile